AAL1564 KCLT-KDCA
Flight info
| Callsign | AAL1564 |
|---|---|
| Flight time | 0h 53m |
| Altitude | 35000 |
| Route | KILNS5 AUDII WAVES CAPSS4 |
| Aircraft | B738/M-SDE2E3FGHIRWXY/LB1 |
Departure
| Time | 2026-04-26 15:05 |
|---|---|
| Airport | Charlotte Douglas International Airport (KCLT) |
Arrival
| Time | 2026-04-26 15:58 |
|---|---|
| Airport | Ronald Reagan Washington National Airport (KDCA) |
| Time | Latitude | Longitude | Altitude | Speed | Heading |
|---|---|---|---|---|---|
| 2026-04-26 14:30 | 35.21921 | -80.94577 | 738 ft | 0 kts | 97° |
| 2026-04-26 14:31 | 35.21921 | -80.94578 | 738 ft | 0 kts | 97° |
| 2026-04-26 14:50 | 35.21925 | -80.94601 | 728 ft | 4 kts | 116° |
| 2026-04-26 14:50 | 35.21941 | -80.94621 | 737 ft | 4 kts | 174° |
| 2026-04-26 14:50 | 35.21957 | -80.94618 | 741 ft | 2 kts | 203° |
| 2026-04-26 14:51 | 35.21960 | -80.94617 | 740 ft | 1 kts | 203° |
| 2026-04-26 14:55 | 35.21959 | -80.94617 | 738 ft | 1 kts | 203° |
| 2026-04-26 14:55 | 35.21925 | -80.94635 | 737 ft | 7 kts | 203° |
| 2026-04-26 14:56 | 35.21877 | -80.94660 | 736 ft | 8 kts | 203° |
| 2026-04-26 14:56 | 35.21828 | -80.94685 | 735 ft | 8 kts | 203° |
| 2026-04-26 14:56 | 35.21773 | -80.94713 | 734 ft | 11 kts | 202° |
| 2026-04-26 14:56 | 35.21670 | -80.94765 | 732 ft | 17 kts | 208° |
| 2026-04-26 14:57 | 35.21606 | -80.94823 | 730 ft | 17 kts | 222° |
| 2026-04-26 14:57 | 35.21538 | -80.94903 | 728 ft | 9 kts | 210° |
| 2026-04-26 14:57 | 35.21446 | -80.94914 | 729 ft | 11 kts | 175° |
| 2026-04-26 14:57 | 35.21364 | -80.94906 | 726 ft | 14 kts | 176° |
| 2026-04-26 14:58 | 35.21257 | -80.94897 | 723 ft | 16 kts | 176° |
| 2026-04-26 14:58 | 35.21143 | -80.94888 | 721 ft | 17 kts | 176° |
| 2026-04-26 14:58 | 35.21068 | -80.94881 | 719 ft | 16 kts | 176° |
| 2026-04-26 14:58 | 35.20956 | -80.94872 | 717 ft | 16 kts | 175° |
| 2026-04-26 14:59 | 35.20850 | -80.94871 | 716 ft | 15 kts | 201° |
| 2026-04-26 14:59 | 35.20768 | -80.94942 | 718 ft | 14 kts | 197° |
| 2026-04-26 14:59 | 35.20671 | -80.94938 | 716 ft | 14 kts | 176° |
| 2026-04-26 14:59 | 35.20608 | -80.94933 | 718 ft | 14 kts | 176° |
| 2026-04-26 15:00 | 35.20463 | -80.94920 | 713 ft | 16 kts | 176° |
| 2026-04-26 15:00 | 35.20322 | -80.94908 | 710 ft | 15 kts | 176° |
| 2026-04-26 15:00 | 35.20253 | -80.94902 | 703 ft | 14 kts | 176° |
| 2026-04-26 15:00 | 35.20185 | -80.94896 | 700 ft | 10 kts | 176° |
| 2026-04-26 15:01 | 35.20143 | -80.94892 | 696 ft | 0 kts | 175° |
| 2026-04-26 15:01 | 35.20121 | -80.94890 | 702 ft | 11 kts | 175° |
| 2026-04-26 15:01 | 35.20035 | -80.94908 | 703 ft | 14 kts | 225° |
| 2026-04-26 15:01 | 35.20021 | -80.94952 | 695 ft | 1 kts | 264° |
| 2026-04-26 15:02 | 35.20021 | -80.94959 | 695 ft | 1 kts | 265° |
| 2026-04-26 15:02 | 35.20019 | -80.94997 | 698 ft | 9 kts | 267° |
| 2026-04-26 15:02 | 35.20041 | -80.95079 | 696 ft | 11 kts | 327° |
| 2026-04-26 15:02 | 35.20072 | -80.95088 | 696 ft | 2 kts | 354° |
| 2026-04-26 15:03 | 35.20084 | -80.95089 | 699 ft | 0 kts | 356° |
| 2026-04-26 15:04 | 35.20279 | -80.95107 | 699 ft | 68 kts | 356° |
| 2026-04-26 15:04 | 35.21017 | -80.95167 | 719 ft | 142 kts | 356° |
| 2026-04-26 15:05 | 35.22193 | -80.95273 | 906 ft | 190 kts | 357° |
| 2026-04-26 15:05 | 35.23108 | -80.95392 | 1303 ft | 208 kts | 356° |
| 2026-04-26 15:05 | 35.24983 | -80.95890 | 2661 ft | 206 kts | 332° |
| 2026-04-26 15:05 | 35.26175 | -80.96973 | 3364 ft | 225 kts | 323° |
| 2026-04-26 15:06 | 35.27434 | -80.98262 | 3631 ft | 248 kts | 322° |
| 2026-04-26 15:06 | 35.28813 | -80.99670 | 4169 ft | 262 kts | 322° |
| 2026-04-26 15:06 | 35.30221 | -81.01113 | 4948 ft | 266 kts | 322° |
| 2026-04-26 15:06 | 35.31650 | -81.02573 | 5734 ft | 268 kts | 323° |
| 2026-04-26 15:07 | 35.35128 | -81.03147 | 7216 ft | 269 kts | 27° |
| 2026-04-26 15:07 | 35.36554 | -81.01655 | 7885 ft | 275 kts | 52° |
| 2026-04-26 15:07 | 35.37462 | -80.99582 | 8619 ft | 281 kts | 71° |
| 2026-04-26 15:08 | 35.37903 | -80.97230 | 9303 ft | 286 kts | 78° |
| 2026-04-26 15:08 | 35.38234 | -80.94802 | 9994 ft | 291 kts | 79° |
| 2026-04-26 15:08 | 35.38545 | -80.92347 | 10412 ft | 305 kts | 79° |
| 2026-04-26 15:08 | 35.38874 | -80.89691 | 10653 ft | 326 kts | 80° |
| 2026-04-26 15:09 | 35.39240 | -80.86862 | 10846 ft | 347 kts | 79° |
| 2026-04-26 15:09 | 35.39636 | -80.83883 | 11211 ft | 359 kts | 79° |
| 2026-04-26 15:09 | 35.40046 | -80.80841 | 11844 ft | 363 kts | 79° |
| 2026-04-26 15:09 | 35.40461 | -80.77785 | 12511 ft | 366 kts | 79° |
| 2026-04-26 15:10 | 35.40885 | -80.74686 | 13124 ft | 371 kts | 79° |
| 2026-04-26 15:10 | 35.41168 | -80.72619 | 13552 ft | 373 kts | 79° |
| 2026-04-26 15:10 | 35.41745 | -80.68405 | 14330 ft | 378 kts | 79° |
| 2026-04-26 15:10 | 35.42185 | -80.65194 | 14891 ft | 383 kts | 79° |
| 2026-04-26 15:11 | 35.42627 | -80.61958 | 15443 ft | 387 kts | 79° |
| 2026-04-26 15:11 | 35.43073 | -80.58681 | 15990 ft | 392 kts | 79° |
| 2026-04-26 15:11 | 35.43518 | -80.55411 | 16502 ft | 396 kts | 79° |
| 2026-04-26 15:11 | 35.43972 | -80.52058 | 17031 ft | 400 kts | 79° |
| 2026-04-26 15:12 | 35.44430 | -80.48676 | 17553 ft | 404 kts | 79° |
| 2026-04-26 15:12 | 35.44892 | -80.45254 | 18061 ft | 409 kts | 80° |
| 2026-04-26 15:12 | 35.45358 | -80.41801 | 18540 ft | 413 kts | 80° |
| 2026-04-26 15:12 | 35.45827 | -80.38309 | 19019 ft | 416 kts | 80° |
| 2026-04-26 15:13 | 35.46299 | -80.34796 | 19504 ft | 419 kts | 80° |
| 2026-04-26 15:13 | 35.46772 | -80.31257 | 19966 ft | 423 kts | 80° |
| 2026-04-26 15:13 | 35.47251 | -80.27675 | 20423 ft | 426 kts | 80° |
| 2026-04-26 15:13 | 35.47725 | -80.24117 | 20871 ft | 430 kts | 80° |
| 2026-04-26 15:14 | 35.48208 | -80.20490 | 21318 ft | 433 kts | 80° |
| 2026-04-26 15:14 | 35.48694 | -80.16826 | 21753 ft | 436 kts | 80° |
| 2026-04-26 15:14 | 35.49181 | -80.13141 | 22192 ft | 440 kts | 80° |
| 2026-04-26 15:14 | 35.49672 | -80.09421 | 22616 ft | 443 kts | 80° |
| 2026-04-26 15:15 | 35.50165 | -80.05679 | 23028 ft | 446 kts | 80° |
| 2026-04-26 15:15 | 35.50660 | -80.01912 | 23428 ft | 449 kts | 80° |
| 2026-04-26 15:15 | 35.51158 | -79.98112 | 23793 ft | 452 kts | 80° |
| 2026-04-26 15:15 | 35.51657 | -79.94294 | 24150 ft | 455 kts | 80° |
| 2026-04-26 15:16 | 35.52158 | -79.90452 | 24505 ft | 457 kts | 80° |
| 2026-04-26 15:16 | 35.52661 | -79.86588 | 24852 ft | 459 kts | 80° |
| 2026-04-26 15:16 | 35.53190 | -79.82775 | 25172 ft | 461 kts | 77° |
| 2026-04-26 15:16 | 35.54089 | -79.78997 | 25491 ft | 462 kts | 68° |
| 2026-04-26 15:17 | 35.55246 | -79.75302 | 25821 ft | 464 kts | 67° |
| 2026-04-26 15:17 | 35.56038 | -79.72858 | 26034 ft | 466 kts | 67° |
| 2026-04-26 15:17 | 35.57647 | -79.67907 | 26450 ft | 469 kts | 67° |
| 2026-04-26 15:17 | 35.58845 | -79.64168 | 26753 ft | 471 kts | 68° |
| 2026-04-26 15:18 | 35.60032 | -79.60405 | 27059 ft | 473 kts | 68° |
| 2026-04-26 15:18 | 35.61215 | -79.56619 | 27351 ft | 475 kts | 68° |
| 2026-04-26 15:18 | 35.62377 | -79.52876 | 27635 ft | 477 kts | 68° |
| 2026-04-26 15:18 | 35.63560 | -79.49052 | 27915 ft | 480 kts | 68° |
| 2026-04-26 15:19 | 35.64747 | -79.45215 | 28191 ft | 482 kts | 69° |
| 2026-04-26 15:19 | 35.65942 | -79.41351 | 28453 ft | 484 kts | 69° |
| 2026-04-26 15:19 | 35.67140 | -79.37473 | 28713 ft | 486 kts | 69° |
| 2026-04-26 15:19 | 35.68342 | -79.33582 | 28960 ft | 488 kts | 68° |
| 2026-04-26 15:20 | 35.69791 | -79.29798 | 29187 ft | 490 kts | 58° |
| 2026-04-26 15:20 | 35.71746 | -79.26360 | 29451 ft | 490 kts | 49° |
| 2026-04-26 15:20 | 35.74083 | -79.23329 | 29776 ft | 488 kts | 39° |
| 2026-04-26 15:20 | 35.76753 | -79.20770 | 30138 ft | 485 kts | 34° |
| 2026-04-26 15:21 | 35.79441 | -79.18364 | 30446 ft | 484 kts | 34° |
| 2026-04-26 15:21 | 35.82173 | -79.15944 | 30718 ft | 484 kts | 34° |
| 2026-04-26 15:21 | 35.84904 | -79.13510 | 30975 ft | 484 kts | 34° |
| 2026-04-26 15:21 | 35.87624 | -79.11057 | 31259 ft | 484 kts | 34° |
| 2026-04-26 15:22 | 35.90324 | -79.08596 | 31535 ft | 484 kts | 35° |
| 2026-04-26 15:22 | 35.93029 | -79.06114 | 31786 ft | 484 kts | 35° |
| 2026-04-26 15:22 | 35.95725 | -79.03631 | 32028 ft | 484 kts | 35° |
| 2026-04-26 15:22 | 35.98441 | -79.01126 | 32278 ft | 485 kts | 35° |
| 2026-04-26 15:23 | 36.01104 | -78.98668 | 32532 ft | 485 kts | 35° |
| 2026-04-26 15:23 | 36.03801 | -78.96178 | 32777 ft | 485 kts | 35° |
| 2026-04-26 15:23 | 36.06503 | -78.93683 | 33010 ft | 485 kts | 35° |
| 2026-04-26 15:23 | 36.09209 | -78.91182 | 33278 ft | 485 kts | 35° |
| 2026-04-26 15:24 | 36.11911 | -78.88683 | 33525 ft | 485 kts | 35° |
| 2026-04-26 15:24 | 36.14608 | -78.86186 | 33762 ft | 485 kts | 36° |
| 2026-04-26 15:24 | 36.17305 | -78.83687 | 33983 ft | 485 kts | 36° |
| 2026-04-26 15:24 | 36.20009 | -78.81181 | 34221 ft | 485 kts | 36° |
| 2026-04-26 15:25 | 36.22658 | -78.78691 | 34451 ft | 483 kts | 36° |
| 2026-04-26 15:25 | 36.24451 | -78.76977 | 34617 ft | 482 kts | 36° |
| 2026-04-26 15:25 | 36.27955 | -78.73595 | 34876 ft | 482 kts | 36° |
| 2026-04-26 15:25 | 36.30599 | -78.71032 | 35043 ft | 482 kts | 36° |
| 2026-04-26 15:26 | 36.35902 | -78.65893 | 35073 ft | 484 kts | 36° |
| 2026-04-26 15:26 | 36.41199 | -78.60766 | 35082 ft | 482 kts | 36° |
| 2026-04-26 15:27 | 36.46440 | -78.55693 | 35082 ft | 481 kts | 36° |
| 2026-04-26 15:27 | 36.51726 | -78.50568 | 35080 ft | 481 kts | 36° |
| 2026-04-26 15:28 | 36.56996 | -78.45449 | 35085 ft | 481 kts | 36° |
| 2026-04-26 15:28 | 36.62274 | -78.40312 | 35113 ft | 482 kts | 36° |
| 2026-04-26 15:29 | 36.67556 | -78.35162 | 35116 ft | 483 kts | 36° |
| 2026-04-26 15:30 | 36.78122 | -78.24833 | 35141 ft | 485 kts | 37° |
| 2026-04-26 15:30 | 36.80788 | -78.22221 | 34854 ft | 491 kts | 37° |
| 2026-04-26 15:30 | 36.83485 | -78.19578 | 34396 ft | 491 kts | 37° |
| 2026-04-26 15:31 | 36.86162 | -78.16949 | 33945 ft | 487 kts | 37° |
| 2026-04-26 15:31 | 36.91443 | -78.11755 | 32969 ft | 479 kts | 37° |
| 2026-04-26 15:31 | 36.94019 | -78.09218 | 32538 ft | 475 kts | 37° |
| 2026-04-26 15:32 | 36.98328 | -78.04971 | 31826 ft | 468 kts | 37° |
| 2026-04-26 15:32 | 37.01694 | -78.01650 | 31284 ft | 462 kts | 37° |
| 2026-04-26 15:32 | 37.04206 | -77.99168 | 30873 ft | 458 kts | 37° |
| 2026-04-26 15:33 | 37.06703 | -77.96699 | 30462 ft | 454 kts | 37° |
| 2026-04-26 15:33 | 37.09169 | -77.94259 | 30037 ft | 451 kts | 36° |
| 2026-04-26 15:33 | 37.11618 | -77.91834 | 29571 ft | 446 kts | 36° |
| 2026-04-26 15:33 | 37.14036 | -77.89437 | 29149 ft | 441 kts | 36° |
| 2026-04-26 15:34 | 37.16397 | -77.87095 | 28735 ft | 436 kts | 37° |
| 2026-04-26 15:34 | 37.18761 | -77.84749 | 28325 ft | 432 kts | 36° |
| 2026-04-26 15:34 | 37.21107 | -77.82417 | 27895 ft | 428 kts | 36° |
| 2026-04-26 15:34 | 37.23420 | -77.80117 | 27495 ft | 423 kts | 36° |
| 2026-04-26 15:35 | 37.25723 | -77.77825 | 27080 ft | 420 kts | 36° |
| 2026-04-26 15:35 | 37.28001 | -77.75557 | 26679 ft | 416 kts | 36° |
| 2026-04-26 15:35 | 37.30261 | -77.73304 | 26293 ft | 413 kts | 36° |
| 2026-04-26 15:35 | 37.32497 | -77.71073 | 25898 ft | 409 kts | 36° |
| 2026-04-26 15:36 | 37.34691 | -77.68883 | 25519 ft | 406 kts | 36° |
| 2026-04-26 15:36 | 37.36896 | -77.66680 | 25130 ft | 403 kts | 36° |
| 2026-04-26 15:36 | 37.39080 | -77.64497 | 24750 ft | 401 kts | 36° |
| 2026-04-26 15:36 | 37.41259 | -77.62316 | 24362 ft | 398 kts | 36° |
| 2026-04-26 15:37 | 37.43417 | -77.60155 | 23981 ft | 396 kts | 36° |
| 2026-04-26 15:37 | 37.45565 | -77.58002 | 23579 ft | 394 kts | 36° |
| 2026-04-26 15:37 | 37.47698 | -77.55862 | 23148 ft | 391 kts | 36° |
| 2026-04-26 15:37 | 37.49818 | -77.53734 | 22742 ft | 387 kts | 36° |
| 2026-04-26 15:38 | 37.51887 | -77.51656 | 22359 ft | 384 kts | 36° |
| 2026-04-26 15:38 | 37.53961 | -77.49570 | 21985 ft | 380 kts | 36° |
| 2026-04-26 15:38 | 37.56012 | -77.47508 | 21592 ft | 376 kts | 36° |
| 2026-04-26 15:38 | 37.58072 | -77.45491 | 21204 ft | 371 kts | 31° |
| 2026-04-26 15:39 | 37.60362 | -77.44182 | 21174 ft | 356 kts | 14° |
| 2026-04-26 15:39 | 37.62741 | -77.43407 | 21144 ft | 349 kts | 12° |
| 2026-04-26 15:39 | 37.65069 | -77.42737 | 21131 ft | 337 kts | 11° |
| 2026-04-26 15:39 | 37.66567 | -77.42310 | 21130 ft | 330 kts | 11° |
| 2026-04-26 15:40 | 37.69449 | -77.41465 | 21127 ft | 313 kts | 12° |
| 2026-04-26 15:40 | 37.71530 | -77.40833 | 21027 ft | 303 kts | 12° |
| 2026-04-26 15:40 | 37.73555 | -77.40210 | 20800 ft | 295 kts | 12° |
| 2026-04-26 15:40 | 37.75535 | -77.39598 | 20400 ft | 291 kts | 13° |
| 2026-04-26 15:41 | 37.77504 | -77.38989 | 19784 ft | 295 kts | 13° |
| 2026-04-26 15:41 | 37.79564 | -77.38352 | 18659 ft | 315 kts | 14° |
| 2026-04-26 15:41 | 37.81737 | -77.37680 | 17746 ft | 324 kts | 14° |
| 2026-04-26 15:41 | 37.83892 | -77.37013 | 17447 ft | 312 kts | 14° |
| 2026-04-26 15:42 | 37.86010 | -77.36358 | 16735 ft | 314 kts | 14° |
| 2026-04-26 15:42 | 37.88089 | -77.35714 | 16287 ft | 311 kts | 14° |
| 2026-04-26 15:42 | 37.90177 | -77.35068 | 15848 ft | 310 kts | 14° |
| 2026-04-26 15:42 | 37.92279 | -77.34421 | 15478 ft | 312 kts | 14° |
| 2026-04-26 15:43 | 37.94395 | -77.33770 | 15121 ft | 314 kts | 14° |
| 2026-04-26 15:43 | 37.96517 | -77.33118 | 14761 ft | 313 kts | 14° |
| 2026-04-26 15:43 | 38.00722 | -77.31823 | 14074 ft | 309 kts | 14° |
| 2026-04-26 15:44 | 38.02810 | -77.31180 | 13708 ft | 308 kts | 14° |
| 2026-04-26 15:44 | 38.06909 | -77.29915 | 13042 ft | 294 kts | 14° |
| 2026-04-26 15:44 | 38.08862 | -77.29307 | 13005 ft | 288 kts | 14° |
| 2026-04-26 15:45 | 38.12918 | -77.28031 | 12117 ft | 303 kts | 14° |
| 2026-04-26 15:45 | 38.14924 | -77.27400 | 11809 ft | 299 kts | 14° |
| 2026-04-26 15:46 | 38.18945 | -77.26136 | 11219 ft | 296 kts | 14° |
| 2026-04-26 15:46 | 38.20920 | -77.25513 | 10916 ft | 288 kts | 14° |
| 2026-04-26 15:46 | 38.22839 | -77.24905 | 10625 ft | 279 kts | 14° |
| 2026-04-26 15:46 | 38.23992 | -77.24538 | 10446 ft | 274 kts | 15° |
| 2026-04-26 15:47 | 38.26283 | -77.23810 | 10108 ft | 264 kts | 15° |
| 2026-04-26 15:47 | 38.29755 | -77.22706 | 9562 ft | 253 kts | 15° |
| 2026-04-26 15:47 | 38.31459 | -77.22163 | 9306 ft | 252 kts | 15° |
| 2026-04-26 15:48 | 38.33161 | -77.21591 | 9106 ft | 254 kts | 21° |
| 2026-04-26 15:48 | 38.34639 | -77.20442 | 9043 ft | 254 kts | 39° |
| 2026-04-26 15:48 | 38.35943 | -77.18980 | 9022 ft | 245 kts | 40° |
| 2026-04-26 15:48 | 38.37225 | -77.17520 | 8456 ft | 253 kts | 40° |
| 2026-04-26 15:49 | 38.38530 | -77.16036 | 8099 ft | 253 kts | 40° |
| 2026-04-26 15:49 | 38.39838 | -77.14550 | 7830 ft | 251 kts | 40° |
| 2026-04-26 15:49 | 38.41142 | -77.13070 | 7558 ft | 251 kts | 40° |
| 2026-04-26 15:49 | 38.42445 | -77.11595 | 7296 ft | 251 kts | 40° |
| 2026-04-26 15:50 | 38.43748 | -77.10122 | 7041 ft | 250 kts | 40° |
| 2026-04-26 15:50 | 38.45055 | -77.08644 | 6742 ft | 252 kts | 40° |
| 2026-04-26 15:50 | 38.46360 | -77.07169 | 6501 ft | 251 kts | 40° |
| 2026-04-26 15:50 | 38.47644 | -77.05717 | 6238 ft | 250 kts | 39° |
| 2026-04-26 15:51 | 38.48947 | -77.04243 | 5975 ft | 250 kts | 39° |
| 2026-04-26 15:51 | 38.50243 | -77.02777 | 5720 ft | 248 kts | 39° |
| 2026-04-26 15:51 | 38.51576 | -77.01513 | 5580 ft | 229 kts | 20° |
| 2026-04-26 15:51 | 38.53075 | -77.01193 | 5468 ft | 210 kts | 4° |
| 2026-04-26 15:52 | 38.54485 | -77.01071 | 5217 ft | 200 kts | 4° |
| 2026-04-26 15:52 | 38.55869 | -77.01001 | 4873 ft | 195 kts | 0° |
| 2026-04-26 15:52 | 38.57201 | -77.01032 | 4618 ft | 188 kts | 359° |
| 2026-04-26 15:52 | 38.58062 | -77.01087 | 4476 ft | 187 kts | 358° |
| 2026-04-26 15:53 | 38.59783 | -77.01230 | 4243 ft | 190 kts | 358° |
| 2026-04-26 15:53 | 38.61133 | -77.01357 | 4049 ft | 195 kts | 357° |
| 2026-04-26 15:53 | 38.62466 | -77.01488 | 3858 ft | 194 kts | 358° |
| 2026-04-26 15:53 | 38.63795 | -77.01622 | 3656 ft | 190 kts | 358° |
| 2026-04-26 15:54 | 38.65092 | -77.01754 | 3442 ft | 185 kts | 358° |
| 2026-04-26 15:54 | 38.66352 | -77.01880 | 3253 ft | 177 kts | 358° |
| 2026-04-26 15:54 | 38.67547 | -77.01997 | 3056 ft | 170 kts | 359° |
| 2026-04-26 15:54 | 38.68737 | -77.02108 | 3029 ft | 171 kts | 358° |
| 2026-04-26 15:55 | 38.69909 | -77.02230 | 2848 ft | 172 kts | 358° |
| 2026-04-26 15:55 | 38.71093 | -77.02353 | 2522 ft | 166 kts | 358° |
| 2026-04-26 15:55 | 38.72210 | -77.02467 | 2266 ft | 160 kts | 357° |
| 2026-04-26 15:55 | 38.73307 | -77.02579 | 2075 ft | 158 kts | 357° |
| 2026-04-26 15:56 | 38.74418 | -77.02691 | 1905 ft | 160 kts | 356° |
| 2026-04-26 15:56 | 38.75524 | -77.02799 | 1694 ft | 163 kts | 357° |
| 2026-04-26 15:56 | 38.76658 | -77.02895 | 1446 ft | 162 kts | 357° |
| 2026-04-26 15:56 | 38.77739 | -77.02999 | 1299 ft | 148 kts | 356° |
| 2026-04-26 15:57 | 38.78750 | -77.03118 | 1102 ft | 144 kts | 355° |
| 2026-04-26 15:57 | 38.79728 | -77.03233 | 978 ft | 141 kts | 357° |
| 2026-04-26 15:57 | 38.80694 | -77.03314 | 757 ft | 142 kts | 358° |
| 2026-04-26 15:57 | 38.81368 | -77.03381 | 638 ft | 145 kts | 357° |
| 2026-04-26 15:58 | 38.82712 | -77.03530 | 324 ft | 146 kts | 357° |
| 2026-04-26 15:58 | 38.83693 | -77.03626 | 138 ft | 137 kts | 359° |
| 2026-04-26 15:58 | 38.84561 | -77.03712 | 20 ft | 115 kts | 356° |
| 2026-04-26 15:58 | 38.85104 | -77.03775 | 20 ft | 31 kts | 356° |
| 2026-04-26 15:59 | 38.85216 | -77.03795 | 19 ft | 13 kts | 339° |
| 2026-04-26 15:59 | 38.85254 | -77.03839 | 20 ft | 3 kts | 296° |
| 2026-04-26 15:59 | 38.85259 | -77.03865 | 17 ft | 3 kts | 278° |
| 2026-04-26 15:59 | 38.85258 | -77.03908 | 17 ft | 6 kts | 268° |
| 2026-04-26 16:00 | 38.85260 | -77.03961 | 18 ft | 7 kts | 291° |
| 2026-04-26 16:00 | 38.85295 | -77.03992 | 19 ft | 4 kts | 340° |
| 2026-04-26 16:00 | 38.85306 | -77.03998 | 21 ft | 0 kts | 331° |
| 2026-04-26 16:00 | 38.85315 | -77.04003 | 20 ft | 7 kts | 342° |
| 2026-04-26 16:01 | 38.85352 | -77.04002 | 21 ft | 1 kts | 360° |
| 2026-04-26 16:01 | 38.85371 | -77.04027 | 21 ft | 5 kts | 292° |
| 2026-04-26 16:01 | 38.85386 | -77.04061 | 21 ft | 3 kts | 306° |
| 2026-04-26 16:01 | 38.85392 | -77.04072 | 22 ft | 0 kts | 307° |